Time;durP1;ratioP1;P1;durP2;ratioP2;P2;SDS_P1;SDS_P2;PMS_P1;PMS_P2;Temp;Humidity;BMP_temperature;BMP_pressure;BME280_temperature;BME280_humidity;BME280_pressure;Samples;Min_cycle;Max_cycle;Signal;HPM_P1;HPM_P2
2021/12/17 00:07:01;;;;;;;0.17;0.17;;;7.20;99.90;;;;;;4973889;28;20113;-66
2021/12/17 00:09:27;;;;;;;1.10;0.85;;;7.20;99.90;;;;;;4974267;28;20038;-66
2021/12/17 00:11:53;;;;;;;0.28;0.28;;;7.20;99.90;;;;;;4973849;28;20031;-66
2021/12/17 00:14:26;;;;;;;0.52;0.45;;;7.20;99.90;;;;;;4974236;28;20050;-67
2021/12/17 00:16:58;;;;;;;1.80;1.70;;;7.20;99.90;;;;;;4974841;28;20506;-66
2021/12/17 00:19:45;;;;;;;0.57;0.57;;;7.20;99.90;;;;;;4973885;28;20046;-66
2021/12/17 00:49:27;;;;;;;0.30;0.30;;;7.10;99.90;;;;;;4973379;28;20118;-65
2021/12/17 00:52:01;;;;;;;2.05;1.95;;;7.20;99.90;;;;;;4973131;28;20126;-67
2021/12/17 00:54:37;;;;;;;0.40;0.40;;;7.20;99.90;;;;;;4973277;28;20042;-65
2021/12/17 00:57:17;;;;;;;0.80;0.75;;;7.10;99.90;;;;;;4974482;28;20038;-65
2021/12/17 00:59:48;;;;;;;0.03;0.03;;;7.00;99.90;;;;;;4973103;28;20507;-65
2021/12/17 01:02:21;;;;;;;2.08;1.48;;;7.00;99.90;;;;;;4957489;28;20046;-65
2021/12/17 01:04:52;;;;;;;1.40;1.10;;;7.00;99.90;;;;;;4973701;28;20428;-65
2021/12/17 01:07:22;;;;;;;1.52;1.25;;;6.90;99.90;;;;;;4973139;28;20477;-65
2021/12/17 01:09:49;;;;;;;0.77;0.65;;;7.00;99.90;;;;;;4973869;28;20043;-65
2021/12/17 01:12:16;;;;;;;4.10;2.88;;;7.10;99.90;;;;;;4973403;28;20415;-65
2021/12/17 01:14:43;;;;;;;0.25;0.25;;;7.10;99.90;;;;;;4974228;28;20369;-65
2021/12/17 01:17:11;;;;;;;1.73;1.38;;;7.10;99.90;;;;;;4972681;28;20622;-65
2021/12/17 01:24:57;;;;;;;0.88;0.88;;;7.20;99.90;;;;;;4972726;28;20121;-65
2021/12/17 01:35:42;;;;;;;0.30;0.30;;;7.20;99.90;;;;;;4972614;28;20058;-66
2021/12/17 01:43:26;;;;;;;3.50;2.08;;;7.30;99.90;;;;;;4973787;28;20451;-65
2021/12/17 01:45:53;;;;;;;1.85;1.13;;;7.30;99.90;;;;;;4988309;28;20146;-65
2021/12/17 01:48:26;;;;;;;0.57;0.57;;;7.20;99.90;;;;;;4972105;28;20031;-65
2021/12/17 02:01:35;;;;;;;0.88;0.88;;;7.30;99.90;;;;;;4972493;28;20026;-66
2021/12/17 02:04:04;;;;;;;0.85;0.85;;;7.30;99.90;;;;;;4973099;28;20037;-66
2021/12/17 02:06:33;;;;;;;2.00;0.98;;;7.30;99.90;;;;;;4973137;28;20035;-66
2021/12/17 02:09:00;;;;;;;0.40;0.40;;;7.30;99.90;;;;;;4971757;28;20492;-66
2021/12/17 02:23:07;;;;;;;0.25;0.25;;;7.50;99.90;;;;;;4973052;28;20473;-66
2021/12/17 02:30:46;;;;;;;0.82;0.80;;;7.60;99.90;;;;;;4972934;28;20483;-65
2021/12/17 02:33:12;;;;;;;2.13;2.03;;;7.60;99.90;;;;;;4971945;28;20046;-65
2021/12/17 02:35:44;;;;;;;1.77;1.65;;;7.70;99.90;;;;;;4971597;28;20039;-65
2021/12/17 02:38:13;;;;;;;0.70;0.70;;;7.70;99.90;;;;;;4973128;28;20058;-65
2021/12/17 02:46:08;;;;;;;3.97;1.40;;;7.60;99.90;;;;;;4972582;28;20059;-65
2021/12/17 02:48:38;;;;;;;1.35;1.25;;;7.60;99.90;;;;;;4972801;28;20045;-65
2021/12/17 02:51:04;;;;;;;0.20;0.20;;;7.60;99.90;;;;;;4971578;28;20037;-65
2021/12/17 02:53:30;;;;;;;1.05;0.95;;;7.50;99.90;;;;;;4973057;28;20042;-65
2021/12/17 02:56:08;;;;;;;0.28;0.28;;;7.60;99.90;;;;;;4971447;28;20033;-66
2021/12/17 02:58:36;;;;;;;1.13;0.98;;;7.60;99.90;;;;;;4971454;28;20484;-66
2021/12/17 03:01:08;;;;;;;0.10;0.10;;;7.40;99.90;;;;;;4972790;28;20031;-65
2021/12/17 03:03:37;;;;;;;0.65;0.57;;;7.40;99.90;;;;;;4971741;28;20146;-65
2021/12/17 03:06:03;;;;;;;5.57;1.33;;;7.50;99.90;;;;;;4972693;28;20395;-66
2021/12/17 03:08:29;;;;;;;0.20;0.20;;;7.60;99.90;;;;;;4971397;28;20034;-65
2021/12/17 03:10:56;;;;;;;0.25;0.25;;;7.60;99.90;;;;;;4972706;28;20435;-65
2021/12/17 03:13:23;;;;;;;0.73;0.55;;;7.60;99.90;;;;;;4971694;28;20030;-65
2021/12/17 03:23:44;;;;;;;2.72;1.30;;;7.50;99.90;;;;;;4972460;28;20039;-65
2021/12/17 03:26:23;;;;;;;1.05;1.05;;;7.40;99.90;;;;;;4972316;28;20035;-65
2021/12/17 03:28:53;;;;;;;0.38;0.38;;;7.50;99.90;;;;;;4972757;28;20038;-66
2021/12/17 03:31:23;;;;;;;0.35;0.35;;;7.30;99.90;;;;;;4987500;28;20391;-66
2021/12/17 03:33:52;;;;;;;4.20;1.20;;;7.40;99.90;;;;;;4972324;28;20463;-64
2021/12/17 03:36:19;;;;;;;0.60;0.60;;;7.50;99.90;;;;;;4974319;28;20029;-64
2021/12/17 03:38:50;;;;;;;0.55;0.55;;;7.50;99.90;;;;;;4975914;28;20042;-65
2021/12/17 03:41:25;;;;;;;0.55;0.55;;;7.40;99.90;;;;;;4974559;28;20035;-65
2021/12/17 03:43:54;;;;;;;0.32;0.17;;;7.50;99.90;;;;;;4976139;28;20089;-65
2021/12/17 03:46:21;;;;;;;0.85;0.85;;;7.50;99.90;;;;;;4974281;28;20058;-65
2021/12/17 03:48:48;;;;;;;0.10;0.10;;;7.60;99.90;;;;;;4990635;28;20085;-65
2021/12/17 03:51:16;;;;;;;0.32;0.32;;;7.60;99.90;;;;;;4975755;28;20038;-65
2021/12/17 03:53:50;;;;;;;0.65;0.65;;;7.60;99.90;;;;;;4975644;28;20093;-65
2021/12/17 03:56:16;;;;;;;0.15;0.15;;;7.70;99.90;;;;;;4958643;28;20042;-65
2021/12/17 03:58:42;;;;;;;1.20;0.43;;;7.60;99.90;;;;;;4975382;28;20551;-65
2021/12/17 04:01:08;;;;;;;0.03;0.03;;;7.60;99.90;;;;;;4974459;28;20094;-65
2021/12/17 04:03:34;;;;;;;0.15;0.15;;;7.60;99.90;;;;;;4975524;28;20488;-65
2021/12/17 04:06:00;;;;;;;0.38;0.38;;;7.60;99.90;;;;;;4975266;28;20094;-65
2021/12/17 04:08:26;;;;;;;0.10;0.10;;;7.60;99.90;;;;;;4974020;28;20031;-65
2021/12/17 04:10:54;;;;;;;0.93;0.93;;;7.60;99.90;;;;;;4975627;28;20117;-65
2021/12/17 04:15:56;;;;;;;2.00;1.60;;;7.60;99.90;;;;;;4975565;28;20058;-65
2021/12/17 04:18:22;;;;;;;0.57;0.57;;;7.70;99.90;;;;;;4975246;28;20030;-65
2021/12/17 04:20:48;;;;;;;0.52;0.52;;;7.70;99.90;;;;;;4975228;28;20058;-65
2021/12/17 04:23:15;;;;;;;1.17;0.93;;;7.60;99.90;;;;;;4975183;28;20471;-66
2021/12/17 04:25:41;;;;;;;0.55;0.55;;;7.60;99.90;;;;;;4975279;28;20122;-66
2021/12/17 04:28:08;;;;;;;5.55;1.60;;;7.60;99.90;;;;;;4974673;28;20449;-65
2021/12/17 04:30:33;;;;;;;0.10;0.10;;;7.70;99.90;;;;;;4975232;28;20026;-65
2021/12/17 04:32:59;;;;;;;0.10;0.10;;;7.70;99.90;;;;;;4975020;28;20433;-65
2021/12/17 04:35:25;;;;;;;0.90;0.85;;;7.70;99.90;;;;;;4975094;28;20038;-66
2021/12/17 04:37:51;;;;;;;0.40;0.40;;;7.60;99.90;;;;;;4957768;28;20035;-65
2021/12/17 04:40:20;;;;;;;0.45;0.45;;;7.60;99.90;;;;;;4974893;28;20357;-65
2021/12/17 04:42:56;;;;;;;0.47;0.47;;;7.60;99.90;;;;;;4974704;28;20031;-65
2021/12/17 04:45:23;;;;;;;0.45;0.35;;;7.60;99.90;;;;;;4974376;28;20436;-67
2021/12/17 04:58:45;;;;;;;1.20;0.50;;;7.40;99.90;;;;;;4974454;28;20035;-65
2021/12/17 05:01:14;;;;;;;0.30;0.30;;;7.20;99.90;;;;;;4974262;28;20634;-65
2021/12/17 05:03:40;;;;;;;0.25;0.25;;;7.20;99.90;;;;;;4974619;28;20057;-65
2021/12/17 05:06:06;;;;;;;1.02;0.43;;;7.10;99.90;;;;;;4974006;28;20476;-66
2021/12/17 05:08:32;;;;;;;0.43;0.43;;;7.10;99.90;;;;;;4974422;28;20045;-65
2021/12/17 05:19:24;;;;;;;0.32;0.32;;;6.90;99.90;;;;;;4974226;28;20387;-66
2021/12/17 05:21:50;;;;;;;1.35;1.08;;;6.90;99.90;;;;;;4972925;28;20383;-66
2021/12/17 05:24:15;;;;;;;2.92;2.50;;;6.80;99.90;;;;;;4973835;28;20031;-65
2021/12/17 05:26:41;;;;;;;3.30;0.90;;;6.80;99.90;;;;;;4988813;28;20039;-64
2021/12/17 05:29:07;;;;;;;0.10;0.10;;;6.70;99.90;;;;;;4988911;28;20110;-65
2021/12/17 05:31:35;;;;;;;6.25;3.50;;;6.70;99.90;;;;;;4988319;28;20509;-66
2021/12/17 05:34:01;;;;;;;3.67;2.95;;;6.60;99.90;;;;;;4973538;28;20113;-66
2021/12/17 05:36:27;;;;;;;2.67;1.95;;;6.60;99.90;;;;;;4973888;28;20162;-62
2021/12/17 05:38:53;;;;;;;0.90;0.90;;;6.50;99.90;;;;;;4973910;28;20476;-65
2021/12/17 05:41:19;;;;;;;0.22;0.22;;;6.50;99.90;;;;;;4973804;28;20042;-65
2021/12/17 05:43:54;;;;;;;2.72;1.75;;;6.40;99.90;;;;;;4972273;28;20039;-66
2021/12/17 05:46:24;;;;;;;1.73;1.63;;;6.40;99.90;;;;;;4988107;28;20047;-65
2021/12/17 05:48:50;;;;;;;0.75;0.75;;;6.30;99.90;;;;;;4972467;28;20085;-66
2021/12/17 05:51:15;;;;;;;0.73;0.45;;;6.50;99.90;;;;;;4971995;28;20035;-67
2021/12/17 05:53:41;;;;;;;0.10;0.10;;;6.30;99.90;;;;;;4973414;28;20488;-66
2021/12/17 05:56:07;;;;;;;1.73;0.85;;;6.10;99.90;;;;;;4973029;28;20038;-66
2021/12/17 05:58:33;;;;;;;2.45;2.10;;;6.00;99.90;;;;;;4973053;28;20038;-65
2021/12/17 06:00:59;;;;;;;0.43;0.43;;;5.90;99.90;;;;;;4974241;28;20105;-65
2021/12/17 06:03:25;;;;;;;0.10;0.10;;;5.70;99.90;;;;;;4971809;28;20038;-64
2021/12/17 06:05:51;;;;;;;0.38;0.38;;;5.70;99.90;;;;;;4955993;28;20034;-65
2021/12/17 06:08:17;;;;;;;1.25;1.17;;;5.70;99.90;;;;;;4973290;28;20110;-64
2021/12/17 06:10:43;;;;;;;0.08;0.08;;;5.60;99.90;;;;;;4972028;28;20114;-64
2021/12/17 06:13:09;;;;;;;0.82;0.82;;;5.60;99.90;;;;;;4972682;28;20038;-65
2021/12/17 06:15:35;;;;;;;0.10;0.10;;;5.60;99.90;;;;;;4955331;28;20038;-65
2021/12/17 06:18:04;;;;;;;2.08;1.45;;;5.40;99.90;;;;;;4955479;28;20063;-65
2021/12/17 06:20:30;;;;;;;1.30;1.20;;;5.30;99.90;;;;;;4971235;28;20046;-65
2021/12/17 06:22:55;;;;;;;1.00;0.95;;;5.40;99.90;;;;;;4970667;28;20126;-65
2021/12/17 06:25:21;;;;;;;4.00;0.65;;;5.30;99.90;;;;;;4972226;28;20042;-65
2021/12/17 06:27:50;;;;;;;0.60;0.60;;;5.30;99.90;;;;;;4970987;28;20030;-65
2021/12/17 06:30:17;;;;;;;0.55;0.55;;;5.20;99.90;;;;;;4971067;28;20395;-65
2021/12/17 06:32:43;;;;;;;0.05;0.05;;;5.10;99.90;;;;;;4972617;28;20027;-64
2021/12/17 06:35:09;;;;;;;2.42;1.48;;;5.10;99.90;;;;;;4971337;28;20102;-65
2021/12/17 06:37:36;;;;;;;0.32;0.32;;;5.10;99.90;;;;;;4972990;28;20037;-64
2021/12/17 06:40:05;;;;;;;0.00;0.00;;;5.10;99.90;;;;;;4973088;28;20377;-64
2021/12/17 06:42:31;;;;;;;0.00;0.00;;;5.10;99.90;;;;;;4956026;28;20031;-70
2021/12/17 06:45:01;;;;;;;1.13;1.08;;;5.00;99.90;;;;;;4972984;28;20089;-71
2021/12/17 06:47:31;;;;;;;0.30;0.30;;;4.90;99.90;;;;;;4972520;28;20043;-72
2021/12/17 07:06:16;;;;;;;0.13;0.13;;;4.60;99.90;;;;;;4957997;28;20042;-65
2021/12/17 07:11:36;;;;;;;0.20;0.20;;;4.50;99.90;;;;;;4975381;28;20035;-64
2021/12/17 07:22:48;;;;;;;0.00;0.00;;;4.20;99.90;;;;;;4974478;28;20040;-64
2021/12/17 07:33:39;;;;;;;0.57;0.57;;;4.10;99.90;;;;;;4976212;28;20043;-64
2021/12/17 07:36:13;;;;;;;0.85;0.85;;;4.20;99.90;;;;;;4975728;28;20041;-62
2021/12/17 07:38:47;;;;;;;1.48;1.38;;;4.20;99.90;;;;;;4959994;28;20502;-65
2021/12/17 07:41:13;;;;;;;0.20;0.20;;;4.20;99.90;;;;;;4959176;28;20065;-64
2021/12/17 07:43:41;;;;;;;0.17;0.17;;;4.20;99.90;;;;;;4975989;28;20439;-65
2021/12/17 07:46:14;;;;;;;0.47;0.47;;;4.20;99.90;;;;;;4975679;28;20099;-64
2021/12/17 07:48:40;;;;;;;1.02;0.43;;;4.30;99.90;;;;;;4974892;28;20171;-65
2021/12/17 07:51:10;;;;;;;0.08;0.08;;;4.20;99.90;;;;;;4975207;28;20027;-66
2021/12/17 07:53:36;;;;;;;0.10;0.10;;;4.00;99.90;;;;;;4974272;28;20451;-65
2021/12/17 07:56:05;;;;;;;0.80;0.80;;;4.10;99.90;;;;;;4974559;28;20085;-65
2021/12/17 07:58:32;;;;;;;0.20;0.20;;;4.10;99.90;;;;;;4974405;28;20061;-70
2021/12/17 08:00:58;;;;;;;1.48;1.38;;;4.10;99.90;;;;;;4974426;28;20031;-65
2021/12/17 08:03:25;;;;;;;0.03;0.03;;;4.20;99.90;;;;;;4974152;28;20120;-65
2021/12/17 08:05:51;;;;;;;0.25;0.25;;;4.30;99.90;;;;;;4975447;28;20484;-63
2021/12/17 08:08:18;;;;;;;0.10;0.10;;;4.40;99.90;;;;;;4973851;28;20034;-64
2021/12/17 08:10:47;;;;;;;0.10;0.10;;;4.50;99.90;;;;;;4974070;28;20039;-65
2021/12/17 08:13:21;;;;;;;0.10;0.10;;;4.50;99.90;;;;;;4974244;28;20109;-65
2021/12/17 08:26:38;;;;;;;0.30;0.30;;;4.70;99.90;;;;;;4974575;28;20443;-65
2021/12/17 08:31:48;;;;;;;0.43;0.43;;;4.90;99.90;;;;;;4974211;28;20038;-63
2021/12/17 08:34:14;;;;;;;0.10;0.10;;;4.90;99.90;;;;;;4974189;28;20034;-64
2021/12/17 08:36:39;;;;;;;2.38;1.13;;;4.90;99.90;;;;;;4972818;28;20039;-64
2021/12/17 08:39:05;;;;;;;0.10;0.10;;;5.00;99.90;;;;;;4974814;28;20098;-64
2021/12/17 08:41:31;;;;;;;0.30;0.30;;;5.10;99.90;;;;;;4973602;28;20045;-64
2021/12/17 08:43:57;;;;;;;0.30;0.30;;;5.10;99.90;;;;;;4974618;28;20031;-64
2021/12/17 08:46:23;;;;;;;0.95;0.95;;;5.10;99.90;;;;;;4974281;28;20055;-64
2021/12/17 08:48:52;;;;;;;0.28;0.25;;;5.20;99.90;;;;;;4974668;28;20472;-64
2021/12/17 08:51:18;;;;;;;0.57;0.30;;;5.30;99.90;;;;;;4973437;28;20468;-64
2021/12/17 08:53:44;;;;;;;1.75;1.65;;;5.40;99.90;;;;;;4973222;28;20046;-65
2021/12/17 08:56:14;;;;;;;0.52;0.52;;;5.40;99.90;;;;;;4974645;28;20027;-65
2021/12/17 08:58:40;;;;;;;0.00;0.00;;;5.50;99.90;;;;;;4973321;28;20035;-65
2021/12/17 09:01:06;;;;;;;0.45;0.45;;;5.60;99.90;;;;;;4974256;28;20050;-65
2021/12/17 09:03:33;;;;;;;0.85;0.85;;;5.90;99.90;;;;;;4974360;28;20397;-65
2021/12/17 09:06:01;;;;;;;0.10;0.10;;;5.90;99.90;;;;;;4974578;28;20039;-65
2021/12/17 09:08:27;;;;;;;0.08;0.08;;;6.00;99.90;;;;;;4974304;28;20050;-64
2021/12/17 09:10:55;;;;;;;0.13;0.13;;;6.20;99.90;;;;;;4974468;28;20113;-64
2021/12/17 09:13:26;;;;;;;1.17;1.13;;;6.30;99.90;;;;;;4974039;28;20031;-64
2021/12/17 09:16:04;;;;;;;1.63;1.38;;;6.40;99.90;;;;;;4974247;28;20097;-63
2021/12/17 09:18:31;;;;;;;0.10;0.10;;;6.50;99.90;;;;;;4972788;28;20495;-64
2021/12/17 09:20:57;;;;;;;0.38;0.38;;;6.60;99.90;;;;;;4973016;28;20178;-64
2021/12/17 09:23:23;;;;;;;0.10;0.10;;;6.70;99.90;;;;;;4973774;28;20107;-63
2021/12/17 09:25:49;;;;;;;0.73;0.73;;;6.80;99.90;;;;;;4974103;28;20042;-63
2021/12/17 09:28:15;;;;;;;0.30;0.30;;;6.90;99.90;;;;;;4973586;28;20111;-64
2021/12/17 09:30:42;;;;;;;1.45;0.55;;;7.00;99.90;;;;;;4972676;28;20039;-64
2021/12/17 09:33:08;;;;;;;0.10;0.10;;;7.10;99.90;;;;;;4972242;28;20038;-65
2021/12/17 09:35:34;;;;;;;0.05;0.05;;;7.20;99.90;;;;;;4973808;28;20039;-64
2021/12/17 09:38:00;;;;;;;0.00;0.00;;;7.30;99.90;;;;;;4973910;28;20439;-64
2021/12/17 09:40:26;;;;;;;2.45;0.75;;;7.40;99.90;;;;;;4973580;28;20046;-64
2021/12/17 09:42:54;;;;;;;0.10;0.10;;;7.40;99.90;;;;;;4972544;28;20507;-64
2021/12/17 09:45:20;;;;;;;0.73;0.73;;;7.60;99.90;;;;;;4973320;28;20031;-64
2021/12/17 09:47:46;;;;;;;0.32;0.32;;;7.70;99.90;;;;;;4988334;28;20109;-64
2021/12/17 09:50:16;;;;;;;0.00;0.00;;;8.00;99.90;;;;;;4972390;28;20043;-64
2021/12/17 09:52:42;;;;;;;0.57;0.57;;;8.60;99.90;;;;;;4973236;28;20034;-65
2021/12/17 09:55:09;;;;;;;0.08;0.08;;;9.20;99.90;;;;;;4973364;28;20050;-64
2021/12/17 09:57:37;;;;;;;1.85;0.90;;;9.60;99.90;;;;;;4972230;28;20041;-64
2021/12/17 10:00:13;;;;;;;0.20;0.20;;;10.50;99.90;;;;;;4973547;28;20034;-65
2021/12/17 10:02:44;;;;;;;0.00;0.00;;;11.40;99.90;;;;;;4973197;28;20555;-65
2021/12/17 10:05:14;;;;;;;0.75;0.60;;;12.10;99.90;;;;;;4973247;28;20492;-65
2021/12/17 10:07:44;;;;;;;0.15;0.15;;;13.10;99.90;;;;;;4973154;28;20034;-65
2021/12/17 10:10:11;;;;;;;0.20;0.20;;;13.70;99.90;;;;;;4972987;28;20096;-65
2021/12/17 10:12:39;;;;;;;1.70;0.73;;;14.00;99.90;;;;;;4971519;28;20049;-65
2021/12/17 10:15:18;;;;;;;0.30;0.30;;;14.00;99.90;;;;;;4972925;28;20066;-64
2021/12/17 10:18:01;;;;;;;0.28;0.28;;;13.00;99.90;;;;;;4972649;28;20816;-65
2021/12/17 10:20:31;;;;;;;4.90;1.77;;;13.90;99.90;;;;;;4971700;28;20105;-65
2021/12/17 10:23:04;;;;;;;0.80;0.73;;;13.60;99.90;;;;;;4971936;28;20027;-65
2021/12/17 10:25:32;;;;;;;2.78;0.75;;;12.10;99.90;;;;;;4973023;28;20555;-65
2021/12/17 10:28:03;;;;;;;1.10;0.70;;;10.90;99.90;;;;;;4973197;28;20077;-65
2021/12/17 10:30:32;;;;;;;0.10;0.10;;;12.20;99.90;;;;;;4971559;28;20043;-65
2021/12/17 10:33:02;;;;;;;0.60;0.60;;;12.20;99.90;;;;;;4973088;28;20058;-64
2021/12/17 10:35:31;;;;;;;0.93;0.85;;;13.30;99.90;;;;;;4972880;28;20027;-65
2021/12/17 10:38:04;;;;;;;1.38;0.80;;;13.50;99.90;;;;;;4972034;28;20535;-65
2021/12/17 10:40:39;;;;;;;1.05;0.95;;;13.50;99.90;;;;;;4971831;28;20499;-65
2021/12/17 10:43:14;;;;;;;1.65;0.88;;;14.10;99.90;;;;;;4972972;28;20052;-64
2021/12/17 10:45:56;;;;;;;0.57;0.50;;;14.90;99.90;;;;;;4974672;28;20078;-65
2021/12/17 10:48:28;;;;;;;1.00;0.77;;;14.50;99.90;;;;;;4975588;28;20069;-66
2021/12/17 10:51:20;;;;;;;0.45;0.30;;;14.80;99.90;;;;;;4976950;28;20487;-64
2021/12/17 10:53:56;;;;;;;0.00;0.00;;;15.00;99.90;;;;;;4974822;28;20050;-65
2021/12/17 10:56:32;;;;;;;0.10;0.10;;;14.00;99.90;;;;;;4975808;28;20041;-65
2021/12/17 10:59:06;;;;;;;0.25;0.25;;;13.00;99.90;;;;;;4975657;28;20034;-65
2021/12/17 11:01:45;;;;;;;0.38;0.30;;;11.90;99.90;;;;;;4975134;28;20480;-65
2021/12/17 11:04:32;;;;;;;0.10;0.10;;;12.20;99.90;;;;;;4976581;28;20476;-64
2021/12/17 11:07:02;;;;;;;1.67;0.57;;;12.10;99.90;;;;;;4975571;28;20035;-64
2021/12/17 11:09:57;;;;;;;0.20;0.20;;;12.10;99.90;;;;;;4976165;28;20042;-65
2021/12/17 11:12:24;;;;;;;0.43;0.43;;;11.90;99.90;;;;;;4976672;28;20126;-65
2021/12/17 11:14:50;;;;;;;3.67;2.53;;;11.90;99.90;;;;;;4976214;28;20031;-65
2021/12/17 11:17:23;;;;;;;0.95;0.50;;;11.40;99.90;;;;;;4975098;28;20027;-65
2021/12/17 11:19:54;;;;;;;1.55;1.45;;;11.20;99.90;;;;;;4976268;28;20046;-65
2021/12/17 11:22:23;;;;;;;0.20;0.20;;;10.70;99.90;;;;;;4975359;28;20058;-64
2021/12/17 11:24:50;;;;;;;0.10;0.10;;;10.40;99.90;;;;;;4976142;28;20065;-65
2021/12/17 11:27:16;;;;;;;0.30;0.30;;;10.70;99.90;;;;;;4974981;28;20038;-65
2021/12/17 11:29:43;;;;;;;0.20;0.20;;;10.90;99.90;;;;;;4958395;28;20130;-65
2021/12/17 11:32:09;;;;;;;0.10;0.10;;;10.50;99.90;;;;;;4974735;28;20122;-65
2021/12/17 11:34:35;;;;;;;0.25;0.25;;;10.60;99.90;;;;;;4975806;28;20117;-65
2021/12/17 11:37:07;;;;;;;0.43;0.43;;;10.30;99.90;;;;;;4975675;28;20026;-65
2021/12/17 11:39:52;;;;;;;0.28;0.28;;;10.60;99.90;;;;;;4974763;28;20038;-64
2021/12/17 11:42:54;;;;;;;0.43;0.40;;;10.80;99.90;;;;;;4975004;28;20027;-64
2021/12/17 11:45:25;;;;;;;0.03;0.03;;;10.80;99.90;;;;;;4974336;28;20039;-64
2021/12/17 11:47:57;;;;;;;4.65;0.95;;;10.80;99.90;;;;;;4974240;28;20075;-64
2021/12/17 11:50:23;;;;;;;0.45;0.45;;;11.20;99.90;;;;;;4975410;28;20054;-64
2021/12/17 11:52:53;;;;;;;0.77;0.73;;;10.80;99.90;;;;;;4974241;28;20042;-64
2021/12/17 11:55:36;;;;;;;0.32;0.32;;;11.30;99.90;;;;;;4974887;28;20054;-64
2021/12/17 11:58:10;;;;;;;4.47;0.85;;;12.10;99.90;;;;;;4974465;28;20030;-65
2021/12/17 12:00:51;;;;;;;0.10;0.10;;;12.40;99.90;;;;;;4975142;28;20039;-64
2021/12/17 12:03:22;;;;;;;;;;;13.20;99.90;;;;;;4974647;28;20059;-64
2021/12/17 12:05:56;;;;;;;0.00;0.00;;;13.70;99.90;;;;;;4975584;28;20006;-65
2021/12/17 12:08:50;;;;;;;0.20;0.20;;;13.60;99.90;;;;;;4975511;28;20031;-65
2021/12/17 12:11:27;;;;;;;0.15;0.15;;;13.50;99.90;;;;;;4975493;28;20554;-64
2021/12/17 12:13:56;;;;;;;0.43;0.43;;;11.60;99.90;;;;;;4974286;28;20038;-64
2021/12/17 12:16:25;;;;;;;0.20;0.20;;;11.10;99.90;;;;;;4975356;28;20031;-64
2021/12/17 12:19:01;;;;;;;7.53;0.57;;;10.70;99.90;;;;;;4973715;28;20510;-64
2021/12/17 12:21:34;;;;;;;0.57;0.57;;;10.90;99.90;;;;;;4974223;28;20031;-64
2021/12/17 12:24:14;;;;;;;0.00;0.00;;;11.10;99.90;;;;;;4975250;28;20096;-63
2021/12/17 12:26:46;;;;;;;1.27;1.17;;;10.10;99.90;;;;;;4973974;28;20023;-64
2021/12/17 12:29:21;;;;;;;0.00;0.00;;;10.30;99.90;;;;;;4973622;28;20448;-64
2021/12/17 12:32:23;;;;;;;0.00;0.00;;;10.20;99.90;;;;;;4974792;28;20058;-64
2021/12/17 12:34:50;;;;;;;0.25;0.15;;;10.30;99.90;;;;;;4991609;28;20098;-64
2021/12/17 12:37:26;;;;;;;0.10;0.10;;;10.50;99.90;;;;;;4978204;28;20125;-64
2021/12/17 12:39:56;;;;;;;0.00;0.00;;;10.50;99.90;;;;;;4974544;28;20141;-65
2021/12/17 12:42:38;;;;;;;0.15;0.15;;;10.50;99.90;;;;;;4974535;28;20479;-64
2021/12/17 12:45:09;;;;;;;0.10;0.10;;;10.70;99.90;;;;;;4973711;28;20400;-64
2021/12/17 12:47:55;;;;;;;0.52;0.52;;;9.80;99.90;;;;;;4974509;28;20065;-65
2021/12/17 12:50:25;;;;;;;0.00;0.00;;;9.90;99.90;;;;;;4973152;28;20054;-64
2021/12/17 12:53:04;;;;;;;0.50;0.43;;;10.90;99.90;;;;;;4973420;28;20035;-64
2021/12/17 12:55:39;;;;;;;0.00;0.00;;;11.20;99.90;;;;;;4974323;28;20074;-65
2021/12/17 12:58:13;;;;;;;0.15;0.15;;;11.70;99.90;;;;;;4974341;28;20522;-65
2021/12/17 13:00:50;;;;;;;0.00;0.00;;;12.50;99.90;;;;;;4974466;28;20046;-65
2021/12/17 13:03:26;;;;;;;0.40;0.30;;;12.70;99.90;;;;;;4989310;28;20397;-65
2021/12/17 13:05:53;;;;;;;0.95;0.80;;;12.70;99.90;;;;;;4972703;28;20026;-65
2021/12/17 13:08:21;;;;;;;0.68;0.40;;;11.80;99.90;;;;;;4972277;28;20066;-65
2021/12/17 13:10:54;;;;;;;1.13;1.02;;;11.70;99.90;;;;;;4974147;28;20034;-65
2021/12/17 13:17:06;;;;;;;0.00;0.00;;;12.70;99.90;;;;;;4974108;28;20038;-64
2021/12/17 13:22:01;;;;;;;0.55;0.55;;;13.50;99.90;;;;;;4973029;28;20045;-65
2021/12/17 13:24:37;;;;;;;0.32;0.32;;;13.60;99.90;;;;;;4974212;28;20031;-64
2021/12/17 13:27:11;;;;;;;0.20;0.20;;;13.90;99.90;;;;;;4973918;28;20035;-65
2021/12/17 13:29:40;;;;;;;0.13;0.13;;;13.60;99.90;;;;;;4973812;28;20038;-64
2021/12/17 13:32:10;;;;;;;0.00;0.00;;;12.30;99.90;;;;;;4972342;28;20430;-64
2021/12/17 13:34:51;;;;;;;2.63;0.55;;;12.70;99.90;;;;;;4972372;28;20042;-65
2021/12/17 13:37:26;;;;;;;0.10;0.10;;;13.00;99.90;;;;;;4972447;28;20027;-64
2021/12/17 13:40:00;;;;;;;0.17;0.10;;;12.30;99.90;;;;;;4973796;28;20050;-65
2021/12/17 13:42:33;;;;;;;0.28;0.28;;;12.70;99.90;;;;;;4973681;28;20376;-65
2021/12/17 13:45:04;;;;;;;1.17;1.00;;;12.80;99.90;;;;;;4972252;28;20551;-64
2021/12/17 13:47:42;;;;;;;0.95;0.88;;;12.50;99.90;;;;;;4971981;28;20054;-65
2021/12/17 13:50:24;;;;;;;0.40;0.30;;;12.10;99.90;;;;;;4972258;28;20045;-65
2021/12/17 13:53:01;;;;;;;0.00;0.00;;;11.90;99.90;;;;;;4972152;28;20038;-65
2021/12/17 13:55:48;;;;;;;0.32;0.32;;;12.20;99.90;;;;;;4973526;28;20031;-65
2021/12/17 13:58:21;;;;;;;0.40;0.40;;;11.80;99.90;;;;;;4971985;28;20129;-65
2021/12/17 14:00:57;;;;;;;1.50;0.73;;;12.10;99.90;;;;;;4973102;28;20034;-65
2021/12/17 14:03:38;;;;;;;0.93;0.93;;;12.00;99.90;;;;;;4972283;28;20035;-65
2021/12/17 14:06:18;;;;;;;0.80;0.80;;;11.60;99.90;;;;;;4973119;28;20146;-65
2021/12/17 14:08:44;;;;;;;0.17;0.17;;;11.80;99.90;;;;;;4973120;28;20424;-65
2021/12/17 14:11:23;;;;;;;0.10;0.10;;;11.50;99.90;;;;;;4972102;28;20035;-65
2021/12/17 14:13:49;;;;;;;0.43;0.43;;;11.40;99.90;;;;;;4987809;28;20031;-65
2021/12/17 14:16:33;;;;;;;0.00;0.00;;;11.00;99.90;;;;;;4972864;28;20097;-64
2021/12/17 14:19:02;;;;;;;0.45;0.45;;;10.90;99.90;;;;;;4987557;28;20066;-64
2021/12/17 14:21:31;;;;;;;0.65;0.65;;;11.00;99.90;;;;;;4973038;28;20134;-65
2021/12/17 14:23:58;;;;;;;1.25;0.88;;;11.00;99.90;;;;;;4972792;28;20031;-65
2021/12/17 14:26:30;;;;;;;0.10;0.10;;;10.70;99.90;;;;;;4971680;28;20089;-64
2021/12/17 14:29:11;;;;;;;0.68;0.68;;;10.50;99.90;;;;;;4972765;28;20038;-64
2021/12/17 14:31:37;;;;;;;0.82;0.82;;;9.70;99.90;;;;;;4955409;28;20027;-65
2021/12/17 14:34:06;;;;;;;0.30;0.30;;;9.80;99.90;;;;;;4972791;28;20039;-64
2021/12/17 14:36:39;;;;;;;0.08;0.08;;;9.10;99.90;;;;;;4971330;28;20046;-65
2021/12/17 14:39:17;;;;;;;1.00;0.68;;;9.20;99.90;;;;;;4972998;28;20031;-65
2021/12/17 14:41:57;;;;;;;0.25;0.25;;;9.30;99.90;;;;;;4971414;28;20484;-64
2021/12/17 14:47:25;;;;;;;0.25;0.25;;;8.80;99.90;;;;;;4972680;28;20507;-65
2021/12/17 15:00:03;;;;;;;0.50;0.50;;;8.50;99.90;;;;;;4971846;28;20034;-64
2021/12/17 15:01:34;;;;;;;3.08;1.70;;;8.50;99.90;;;;;;4972995;28;20046;-64
2021/12/17 15:04:00;;;;;;;0.10;0.10;;;8.50;99.90;;;;;;4971240;28;20089;-63
2021/12/17 15:06:28;;;;;;;0.50;0.50;;;8.40;99.90;;;;;;4972398;28;20113;-64
2021/12/17 15:08:54;;;;;;;5.47;1.08;;;8.30;99.90;;;;;;4971435;28;20031;-64
2021/12/17 15:11:36;;;;;;;1.42;1.35;;;8.40;99.90;;;;;;4972631;28;20037;-64
2021/12/17 15:14:02;;;;;;;0.08;0.08;;;8.20;99.90;;;;;;4987068;28;20070;-64
2021/12/17 15:16:28;;;;;;;0.00;0.00;;;8.00;99.90;;;;;;4971300;28;20031;-64
2021/12/17 15:18:54;;;;;;;0.32;0.32;;;8.10;99.90;;;;;;4972241;28;20030;-64
2021/12/17 15:21:20;;;;;;;0.10;0.10;;;8.00;99.90;;;;;;4972427;28;20041;-64
2021/12/17 15:23:46;;;;;;;0.00;0.00;;;8.00;99.90;;;;;;4972459;28;20061;-64
2021/12/17 15:26:12;;;;;;;0.43;0.43;;;8.00;99.90;;;;;;4971074;28;20524;-64
2021/12/17 15:28:43;;;;;;;0.38;0.38;;;7.80;99.90;;;;;;4972137;28;20114;-64
2021/12/17 15:31:09;;;;;;;0.17;0.17;;;7.70;99.90;;;;;;4973485;28;20031;-65
2021/12/17 15:33:36;;;;;;;0.20;0.20;;;7.80;99.90;;;;;;4974547;28;20037;-65
2021/12/17 15:36:02;;;;;;;0.20;0.20;;;7.80;99.90;;;;;;4974657;28;20054;-65
2021/12/17 15:38:28;;;;;;;0.22;0.22;;;7.70;99.90;;;;;;4974497;28;20026;-65
2021/12/17 15:40:54;;;;;;;1.65;1.05;;;7.90;99.90;;;;;;4975088;28;20488;-64
2021/12/17 15:43:22;;;;;;;0.93;0.93;;;7.90;99.90;;;;;;4975345;28;20466;-65
2021/12/17 15:45:51;;;;;;;1.50;1.02;;;7.90;99.90;;;;;;4974247;28;20109;-64
2021/12/17 15:48:19;;;;;;;0.75;0.75;;;8.10;99.90;;;;;;4957543;28;20043;-64
2021/12/17 15:50:45;;;;;;;0.85;0.85;;;8.00;99.90;;;;;;4974109;28;20456;-63
2021/12/17 15:53:12;;;;;;;0.60;0.60;;;7.90;99.90;;;;;;4975506;28;20034;-64
2021/12/17 15:55:40;;;;;;;1.10;1.10;;;7.70;99.90;;;;;;4974321;28;20534;-63
2021/12/17 15:58:07;;;;;;;0.88;0.85;;;7.70;99.90;;;;;;4975200;28;20383;-64
2021/12/17 16:00:36;;;;;;;0.65;0.65;;;7.80;99.90;;;;;;4975320;28;20177;-64
2021/12/17 16:03:07;;;;;;;0.20;0.20;;;7.70;99.90;;;;;;4974205;28;20035;-65
2021/12/17 16:05:37;;;;;;;0.30;0.30;;;7.70;99.90;;;;;;4975289;28;20038;-63
2021/12/17 16:08:04;;;;;;;4.28;1.85;;;7.60;99.90;;;;;;4975773;28;20383;-64
2021/12/17 16:18:50;;;;;;;0.52;0.52;;;7.70;99.90;;;;;;4975241;28;20042;-65